sensor_id;sensor_type;location;lat;lon;timestamp;pressure;altitude;pressure_sealevel;temperature;humidity
70521;BME280;58442;52.716;23.560;2023-04-29T00:01:04;101623.45;;;3.12;63.71
70521;BME280;58442;52.716;23.560;2023-04-29T00:03:05;101625.63;;;3.10;63.81
70521;BME280;58442;52.716;23.560;2023-04-29T00:05:08;101635.57;;;3.09;63.87
70521;BME280;58442;52.716;23.560;2023-04-29T00:07:10;101623.18;;;3.08;63.90
70521;BME280;58442;52.716;23.560;2023-04-29T00:09:20;101625.87;;;3.08;63.95
70521;BME280;58442;52.716;23.560;2023-04-29T00:11:21;101624.27;;;3.07;64.03
70521;BME280;58442;52.716;23.560;2023-04-29T00:13:23;101622.67;;;3.06;64.03
70521;BME280;58442;52.716;23.560;2023-04-29T00:15:25;101622.67;;;3.06;64.01
70521;BME280;58442;52.716;23.560;2023-04-29T00:17:34;101629.12;;;3.05;64.02
70521;BME280;58442;52.716;23.560;2023-04-29T00:19:36;101622.15;;;3.04;64.14
70521;BME280;58442;52.716;23.560;2023-04-29T00:21:37;101616.26;;;3.02;64.13
70521;BME280;58442;52.716;23.560;2023-04-29T00:23:39;101618.39;;;3.00;64.13
70521;BME280;58442;52.716;23.560;2023-04-29T00:25:49;101615.20;;;2.98;64.17
70521;BME280;58442;52.716;23.560;2023-04-29T00:27:53;101620.04;;;2.96;64.25
70521;BME280;58442;52.716;23.560;2023-04-29T00:29:54;101617.88;;;2.93;64.30
70521;BME280;58442;52.716;23.560;2023-04-29T00:31:57;101620.85;;;2.91;64.32
70521;BME280;58442;52.716;23.560;2023-04-29T00:34:04;101617.64;;;2.89;64.36
70521;BME280;58442;52.716;23.560;2023-04-29T00:36:06;101612.80;;;2.86;64.43
70521;BME280;58442;52.716;23.560;2023-04-29T00:38:09;101615.48;;;2.86;64.43
70521;BME280;58442;52.716;23.560;2023-04-29T00:40:11;101617.37;;;2.86;64.44
70521;BME280;58442;52.716;23.560;2023-04-29T00:42:19;101615.77;;;2.85;64.46
70521;BME280;58442;52.716;23.560;2023-04-29T00:44:21;101618.73;;;2.83;64.54
70521;BME280;58442;52.716;23.560;2023-04-29T00:46:22;101621.14;;;2.80;64.57
70521;BME280;58442;52.716;23.560;2023-04-29T00:48:24;101617.94;;;2.78;64.63
70521;BME280;58442;52.716;23.560;2023-04-29T00:50:34;101620.90;;;2.76;64.69
70521;BME280;58442;52.716;23.560;2023-04-29T00:52:38;101612.05;;;2.76;64.76
70521;BME280;58442;52.716;23.560;2023-04-29T00:54:40;101606.13;;;2.73;64.80
70521;BME280;58442;52.716;23.560;2023-04-29T00:56:44;101608.81;;;2.73;64.77
70521;BME280;58442;52.716;23.560;2023-04-29T00:58:49;101603.73;;;2.72;64.77
70521;BME280;58442;52.716;23.560;2023-04-29T01:00:52;101605.61;;;2.71;64.86
70521;BME280;58442;52.716;23.560;2023-04-29T01:02:56;101604.00;;;2.70;64.87
70521;BME280;58442;52.716;23.560;2023-04-29T01:04:59;101603.48;;;2.68;64.90
70521;BME280;58442;52.716;23.560;2023-04-29T01:14:08;101601.32;;;2.65;65.17
70521;BME280;58442;52.716;23.560;2023-04-29T01:20:36;101599.73;;;2.64;65.27
70521;BME280;58442;52.716;23.560;2023-04-29T01:22:39;101610.45;;;2.64;65.23
70521;BME280;58442;52.716;23.560;2023-04-29T01:24:49;101597.32;;;2.63;65.29
70521;BME280;58442;52.716;23.560;2023-04-29T01:26:56;101603.77;;;2.62;65.34
70521;BME280;58442;52.716;23.560;2023-04-29T01:31:31;101602.97;;;2.56;65.39
70521;BME280;58442;52.716;23.560;2023-04-29T01:33:32;101604.84;;;2.56;65.43
70521;BME280;58442;52.716;23.560;2023-04-29T01:35:49;101606.73;;;2.55;65.47
70521;BME280;58442;52.716;23.560;2023-04-29T01:38:04;101619.07;;;2.56;65.44
70521;BME280;58442;52.716;23.560;2023-04-29T01:40:18;101609.95;;;2.57;65.48
70521;BME280;58442;52.716;23.560;2023-04-29T01:42:38;101600.29;;;2.56;65.44
70521;BME280;58442;52.716;23.560;2023-04-29T01:44:40;101611.29;;;2.55;65.47
70521;BME280;58442;52.716;23.560;2023-04-29T01:46:50;101609.95;;;2.52;65.47
70521;BME280;58442;52.716;23.560;2023-04-29T01:48:53;101605.65;;;2.51;65.50
70521;BME280;58442;52.716;23.560;2023-04-29T01:50:55;101613.18;;;2.49;65.49
70521;BME280;58442;52.716;23.560;2023-04-29T01:52:57;101607.26;;;2.47;65.55
70521;BME280;58442;52.716;23.560;2023-04-29T01:54:59;101608.62;;;2.44;65.59
70521;BME280;58442;52.716;23.560;2023-04-29T01:57:01;101614.26;;;2.43;65.62
70521;BME280;58442;52.716;23.560;2023-04-29T01:59:03;101604.61;;;2.42;65.66
70521;BME280;58442;52.716;23.560;2023-04-29T02:01:05;101606.73;;;2.40;65.74
70521;BME280;58442;52.716;23.560;2023-04-29T02:03:07;101610.50;;;2.39;65.77
70521;BME280;58442;52.716;23.560;2023-04-29T02:05:08;101609.98;;;2.37;65.77
70521;BME280;58442;52.716;23.560;2023-04-29T02:07:18;101612.13;;;2.35;65.88
70521;BME280;58442;52.716;23.560;2023-04-29T02:09:19;101612.38;;;2.33;65.94
70521;BME280;58442;52.716;23.560;2023-04-29T02:11:21;101611.05;;;2.31;65.98
70521;BME280;58442;52.716;23.560;2023-04-29T02:13:22;101611.32;;;2.29;66.00
70521;BME280;58442;52.716;23.560;2023-04-29T02:15:33;101608.63;;;2.29;66.03
70521;BME280;58442;52.716;23.560;2023-04-29T02:17:34;101614.01;;;2.29;66.06
70521;BME280;58442;52.716;23.560;2023-04-29T02:19:36;101615.89;;;2.29;66.03
70521;BME280;58442;52.716;23.560;2023-04-29T02:21:37;101618.04;;;2.27;65.98
70521;BME280;58442;52.716;23.560;2023-04-29T02:23:48;101610.80;;;2.27;66.00
70521;BME280;58442;52.716;23.560;2023-04-29T02:25:51;101602.75;;;2.27;66.05
70521;BME280;58442;52.716;23.560;2023-04-29T02:27:52;101600.88;;;2.28;66.06
70521;BME280;58442;52.716;23.560;2023-04-29T02:29:54;101595.23;;;2.29;66.00
70521;BME280;58442;52.716;23.560;2023-04-29T02:32:03;101597.11;;;2.29;66.01
70521;BME280;58442;52.716;23.560;2023-04-29T02:34:06;101604.64;;;2.27;66.09
70521;BME280;58442;52.716;23.560;2023-04-29T02:36:08;101597.64;;;2.26;66.17
70521;BME280;58442;52.716;23.560;2023-04-29T02:38:09;101602.19;;;2.25;66.17
70521;BME280;58442;52.716;23.560;2023-04-29T02:40:18;101594.95;;;2.26;66.20
70521;BME280;58442;52.716;23.560;2023-04-29T02:42:20;101601.40;;;2.25;66.28
70521;BME280;58442;52.716;23.560;2023-04-29T02:44:21;101596.84;;;2.25;66.32
70521;BME280;58442;52.716;23.560;2023-04-29T02:46:22;101593.34;;;2.25;66.31
70521;BME280;58442;52.716;23.560;2023-04-29T02:48:33;101595.77;;;2.26;66.38
70521;BME280;58442;52.716;23.560;2023-04-29T02:50:35;101600.32;;;2.26;66.42
70521;BME280;58442;52.716;23.560;2023-04-29T02:52:36;101595.51;;;2.28;66.45
70521;BME280;58442;52.716;23.560;2023-04-29T02:54:38;101592.55;;;2.29;66.42
70521;BME280;58442;52.716;23.560;2023-04-29T02:56:48;101600.32;;;2.31;66.41
70521;BME280;58442;52.716;23.560;2023-04-29T02:58:50;101595.77;;;2.31;66.42
70521;BME280;58442;52.716;23.560;2023-04-29T03:00:51;101600.32;;;2.31;66.39
70521;BME280;58442;52.716;23.560;2023-04-29T03:02:52;101594.95;;;2.31;66.38
70521;BME280;58442;52.716;23.560;2023-04-29T03:05:04;101598.71;;;2.30;66.43
70521;BME280;58442;52.716;23.560;2023-04-29T03:07:05;101606.48;;;2.31;66.49
70521;BME280;58442;52.716;23.560;2023-04-29T03:09:08;101602.48;;;2.34;66.48
70521;BME280;58442;52.716;23.560;2023-04-29T03:11:09;101601.13;;;2.36;66.44
70521;BME280;58442;52.716;23.560;2023-04-29T03:13:18;101594.40;;;2.39;66.43
70521;BME280;58442;52.716;23.560;2023-04-29T03:15:20;101596.55;;;2.42;66.47
70521;BME280;58442;52.716;23.560;2023-04-29T03:17:22;101596.55;;;2.42;66.45
70521;BME280;58442;52.716;23.560;2023-04-29T03:19:23;101598.68;;;2.45;66.44
70521;BME280;58442;52.716;23.560;2023-04-29T03:21:33;101595.73;;;2.46;66.47
70521;BME280;58442;52.716;23.560;2023-04-29T03:23:35;101604.05;;;2.50;66.38
70521;BME280;58442;52.716;23.560;2023-04-29T03:25:36;101598.93;;;2.54;66.51
70521;BME280;58442;52.716;23.560;2023-04-29T03:27:38;101599.20;;;2.57;66.49
70521;BME280;58442;52.716;23.560;2023-04-29T03:29:48;101604.56;;;2.62;66.50
70521;BME280;58442;52.716;23.560;2023-04-29T03:31:50;101601.32;;;2.65;66.54
70521;BME280;58442;52.716;23.560;2023-04-29T03:33:52;101609.89;;;2.67;66.53
70521;BME280;58442;52.716;23.560;2023-04-29T03:35:53;101604.00;;;2.70;66.55
70521;BME280;58442;52.716;23.560;2023-04-29T03:38:03;101610.45;;;2.74;66.57
70521;BME280;58442;52.716;23.560;2023-04-29T03:40:06;101604.51;;;2.78;66.60
70521;BME280;58442;52.716;23.560;2023-04-29T03:42:07;101611.76;;;2.82;66.57
70521;BME280;58442;52.716;23.560;2023-04-29T03:44:09;101603.14;;;2.85;66.50
70521;BME280;58442;52.716;23.560;2023-04-29T03:46:18;101603.67;;;2.87;66.51
70521;BME280;58442;52.716;23.560;2023-04-29T03:48:20;101602.05;;;2.91;66.57
70521;BME280;58442;52.716;23.560;2023-04-29T03:50:22;101613.86;;;2.95;66.53
70521;BME280;58442;52.716;23.560;2023-04-29T03:52:23;101609.81;;;2.98;66.47
70521;BME280;58442;52.716;23.560;2023-04-29T03:54:33;101613.02;;;3.00;66.48
70521;BME280;58442;52.716;23.560;2023-04-29T03:56:35;101615.18;;;3.03;66.53
70521;BME280;58442;52.716;23.560;2023-04-29T03:58:37;101616.50;;;3.06;66.55
70521;BME280;58442;52.716;23.560;2023-04-29T04:00:38;101609.51;;;3.10;66.53
70521;BME280;58442;52.716;23.560;2023-04-29T04:02:48;101610.27;;;3.15;66.58
70521;BME280;58442;52.716;23.560;2023-04-29T04:04:50;101612.66;;;3.22;66.62
70521;BME280;58442;52.716;23.560;2023-04-29T04:06:52;101612.64;;;3.27;66.57
70521;BME280;58442;52.716;23.560;2023-04-29T04:08:53;101612.34;;;3.34;66.54
70521;BME280;58442;52.716;23.560;2023-04-29T04:11:03;101612.83;;;3.41;66.54
70521;BME280;58442;52.716;23.560;2023-04-29T04:13:05;101617.10;;;3.47;66.59
70521;BME280;58442;52.716;23.560;2023-04-29T04:15:07;101616.28;;;3.51;66.52
70521;BME280;58442;52.716;23.560;2023-04-29T04:17:08;101618.66;;;3.58;66.45
70521;BME280;58442;52.716;23.560;2023-04-29T04:19:18;101612.98;;;3.65;66.47
70521;BME280;58442;52.716;23.560;2023-04-29T04:21:20;101616.41;;;3.70;66.47
70521;BME280;58442;52.716;23.560;2023-04-29T04:23:21;101617.18;;;3.76;66.42
70521;BME280;58442;52.716;23.560;2023-04-29T04:25:24;101619.27;;;3.84;66.38
70521;BME280;58442;52.716;23.560;2023-04-29T04:27:34;101617.09;;;3.91;66.33
70521;BME280;58442;52.716;23.560;2023-04-29T04:29:35;101618.38;;;3.99;66.34
70521;BME280;58442;52.716;23.560;2023-04-29T04:31:36;101621.27;;;4.07;66.27
70521;BME280;58442;52.716;23.560;2023-04-29T04:33:42;101610.18;;;4.14;66.18
70521;BME280;58442;52.716;23.560;2023-04-29T04:35:48;101608.47;;;4.23;66.15
70521;BME280;58442;52.716;23.560;2023-04-29T04:37:50;101605.16;;;4.31;66.11
70521;BME280;58442;52.716;23.560;2023-04-29T04:39:51;101611.01;;;4.38;66.05
70521;BME280;58442;52.716;23.560;2023-04-29T04:41:53;101602.61;;;4.45;66.02
70521;BME280;58442;52.716;23.560;2023-04-29T04:44:04;101597.43;;;4.54;66.00
70521;BME280;58442;52.716;23.560;2023-04-29T04:46:13;101599.49;;;4.62;66.05
70521;BME280;58442;52.716;23.560;2023-04-29T04:48:15;101600.46;;;4.71;66.02
70521;BME280;58442;52.716;23.560;2023-04-29T04:50:16;101601.42;;;4.80;65.96
70521;BME280;58442;52.716;23.560;2023-04-29T04:52:20;101599.71;;;4.89;65.93
70521;BME280;58442;52.716;23.560;2023-04-29T04:54:22;101593.19;;;4.96;65.92
70521;BME280;58442;52.716;23.560;2023-04-29T04:56:23;101598.73;;;5.04;65.88
70521;BME280;58442;52.716;23.560;2023-04-29T04:58:25;101604.56;;;5.11;65.80
70521;BME280;58442;52.716;23.560;2023-04-29T05:00:34;101595.33;;;5.17;65.74
70521;BME280;58442;52.716;23.560;2023-04-29T05:02:36;101597.36;;;5.26;65.72
70521;BME280;58442;52.716;23.560;2023-04-29T05:04:37;101594.83;;;5.34;65.56
70521;BME280;58442;52.716;23.560;2023-04-29T05:06:39;101596.89;;;5.42;65.34
70521;BME280;58442;52.716;23.560;2023-04-29T05:08:49;101597.33;;;5.49;65.15
70521;BME280;58442;52.716;23.560;2023-04-29T05:10:51;101603.66;;;5.59;64.98
70521;BME280;58442;52.716;23.560;2023-04-29T05:12:52;101603.59;;;5.64;64.85
70521;BME280;58442;52.716;23.560;2023-04-29T05:14:54;101597.03;;;5.70;64.69
70521;BME280;58442;52.716;23.560;2023-04-29T05:17:04;101600.16;;;5.77;64.51
70521;BME280;58442;52.716;23.560;2023-04-29T05:19:06;101596.25;;;5.83;64.42
70521;BME280;58442;52.716;23.560;2023-04-29T05:21:09;101587.29;;;5.88;64.35
70521;BME280;58442;52.716;23.560;2023-04-29T05:23:11;101598.54;;;5.95;64.23
70521;BME280;58442;52.716;23.560;2023-04-29T05:25:19;101596.56;;;6.00;64.09
70521;BME280;58442;52.716;23.560;2023-04-29T05:27:20;101593.79;;;6.06;63.97
70521;BME280;58442;52.716;23.560;2023-04-29T05:29:22;101592.89;;;6.10;63.89
70521;BME280;58442;52.716;23.560;2023-04-29T05:31:23;101592.80;;;6.15;63.84
70521;BME280;58442;52.716;23.560;2023-04-29T05:33:34;101597.52;;;6.23;63.67
70521;BME280;58442;52.716;23.560;2023-04-29T05:35:36;101594.43;;;6.30;63.49
70521;BME280;58442;52.716;23.560;2023-04-29T05:37:37;101595.95;;;6.36;63.39
70521;BME280;58442;52.716;23.560;2023-04-29T05:39:38;101588.56;;;6.42;63.28
70521;BME280;58442;52.716;23.560;2023-04-29T05:41:49;101599.47;;;6.50;63.17
70521;BME280;58442;52.716;23.560;2023-04-29T05:43:50;101605.27;;;6.57;63.02
70521;BME280;58442;52.716;23.560;2023-04-29T05:45:52;101595.67;;;6.65;62.93
70521;BME280;58442;52.716;23.560;2023-04-29T05:47:53;101592.58;;;6.72;62.82
70521;BME280;58442;52.716;23.560;2023-04-29T05:50:05;101596.51;;;6.79;62.69
70521;BME280;58442;52.716;23.560;2023-04-29T05:52:07;101588.49;;;6.88;62.50
70521;BME280;58442;52.716;23.560;2023-04-29T05:54:08;101595.88;;;6.96;62.34
70521;BME280;58442;52.716;23.560;2023-04-29T05:56:10;101592.48;;;7.04;62.16
70521;BME280;58442;52.716;23.560;2023-04-29T05:58:19;101595.77;;;7.15;62.00
70521;BME280;58442;52.716;23.560;2023-04-29T06:00:21;101595.86;;;7.24;61.84
70521;BME280;58442;52.716;23.560;2023-04-29T06:02:23;101596.73;;;7.33;61.65
70521;BME280;58442;52.716;23.560;2023-04-29T06:04:25;101589.52;;;7.42;61.53
70521;BME280;58442;52.716;23.560;2023-04-29T06:06:34;101587.04;;;7.54;61.35
70521;BME280;58442;52.716;23.560;2023-04-29T06:08:35;101591.92;;;7.66;61.14
70521;BME280;58442;52.716;23.560;2023-04-29T06:10:37;101594.88;;;7.78;60.90
70521;BME280;58442;52.716;23.560;2023-04-29T06:12:38;101601.36;;;7.91;60.68
70521;BME280;58442;52.716;23.560;2023-04-29T06:14:49;101596.19;;;8.03;60.42
70521;BME280;58442;52.716;23.560;2023-04-29T06:16:50;101598.00;;;8.16;60.21
70521;BME280;58442;52.716;23.560;2023-04-29T06:18:53;101595.05;;;8.27;60.03
70521;BME280;58442;52.716;23.560;2023-04-29T06:20:54;101599.13;;;8.38;59.78
70521;BME280;58442;52.716;23.560;2023-04-29T06:23:04;101598.73;;;8.53;59.55
70521;BME280;58442;52.716;23.560;2023-04-29T06:25:06;101594.32;;;8.66;59.38
70521;BME280;58442;52.716;23.560;2023-04-29T06:27:07;101590.99;;;8.77;59.20
70521;BME280;58442;52.716;23.560;2023-04-29T06:29:09;101591.20;;;8.90;59.00
70521;BME280;58442;52.716;23.560;2023-04-29T06:31:19;101592.66;;;9.04;58.79
70521;BME280;58442;52.716;23.560;2023-04-29T06:33:20;101591.73;;;9.18;58.58
70521;BME280;58442;52.716;23.560;2023-04-29T06:35:22;101586.98;;;9.32;58.27
70521;BME280;58442;52.716;23.560;2023-04-29T06:37:23;101586.67;;;9.51;57.96
70521;BME280;58442;52.716;23.560;2023-04-29T06:39:34;101577.75;;;9.68;57.62
70521;BME280;58442;52.716;23.560;2023-04-29T06:41:35;101590.49;;;9.84;57.29
70521;BME280;58442;52.716;23.560;2023-04-29T06:43:37;101582.17;;;9.98;56.95
70521;BME280;58442;52.716;23.560;2023-04-29T06:45:38;101575.76;;;10.11;56.73
70521;BME280;58442;52.716;23.560;2023-04-29T06:47:49;101565.52;;;10.26;56.42
70521;BME280;58442;52.716;23.560;2023-04-29T06:49:50;101580.95;;;10.43;56.00
70521;BME280;58442;52.716;23.560;2023-04-29T06:51:53;101576.93;;;10.57;55.57
70521;BME280;58442;52.716;23.560;2023-04-29T06:53:54;101572.36;;;10.70;55.30
70521;BME280;58442;52.716;23.560;2023-04-29T06:56:04;101589.28;;;10.84;54.95
70521;BME280;58442;52.716;23.560;2023-04-29T06:58:06;101574.96;;;10.96;54.68
70521;BME280;58442;52.716;23.560;2023-04-29T07:00:08;101575.05;;;11.08;54.32
70521;BME280;58442;52.716;23.560;2023-04-29T07:02:10;101573.20;;;11.21;54.01
70521;BME280;58442;52.716;23.560;2023-04-29T07:04:19;101567.05;;;11.33;53.66
70521;BME280;58442;52.716;23.560;2023-04-29T07:06:20;101569.51;;;11.46;53.30
70521;BME280;58442;52.716;23.560;2023-04-29T07:08:21;101574.68;;;11.60;53.02
70521;BME280;58442;52.716;23.560;2023-04-29T07:10:23;101576.77;;;11.75;52.73
70521;BME280;58442;52.716;23.560;2023-04-29T07:12:33;101574.24;;;11.91;52.36
70521;BME280;58442;52.716;23.560;2023-04-29T07:14:35;101567.70;;;12.04;51.95
70521;BME280;58442;52.716;23.560;2023-04-29T07:16:37;101565.02;;;12.17;51.63
70521;BME280;58442;52.716;23.560;2023-04-29T07:18:38;101566.16;;;12.28;51.28
70521;BME280;58442;52.716;23.560;2023-04-29T07:20:48;101568.24;;;12.43;51.10
70521;BME280;58442;52.716;23.560;2023-04-29T07:22:52;101570.64;;;12.57;50.79
70521;BME280;58442;52.716;23.560;2023-04-29T07:24:54;101563.71;;;12.72;50.37
70521;BME280;58442;52.716;23.560;2023-04-29T07:26:57;101574.28;;;12.85;50.04
70521;BME280;58442;52.716;23.560;2023-04-29T07:29:03;101548.09;;;12.97;49.78
70521;BME280;58442;52.716;23.560;2023-04-29T07:31:05;101570.27;;;13.07;49.43
70521;BME280;58442;52.716;23.560;2023-04-29T07:33:08;101557.63;;;13.15;48.80
70521;BME280;58442;52.716;23.560;2023-04-29T07:35:10;101560.59;;;13.22;48.65
70521;BME280;58442;52.716;23.560;2023-04-29T07:37:18;101557.29;;;13.29;48.35
70521;BME280;58442;52.716;23.560;2023-04-29T07:39:19;101564.10;;;13.35;48.02
70521;BME280;58442;52.716;23.560;2023-04-29T07:41:21;101567.48;;;13.44;47.72
70521;BME280;58442;52.716;23.560;2023-04-29T07:43:22;101564.63;;;13.53;47.48
70521;BME280;58442;52.716;23.560;2023-04-29T07:45:33;101552.84;;;13.64;47.56
70521;BME280;58442;52.716;23.560;2023-04-29T07:47:35;101561.34;;;13.75;46.81
70521;BME280;58442;52.716;23.560;2023-04-29T07:49:37;101556.97;;;13.86;46.51
70521;BME280;58442;52.716;23.560;2023-04-29T07:51:44;101549.40;;;13.95;46.32
70521;BME280;58442;52.716;23.560;2023-04-29T07:53:48;101555.13;;;14.06;46.07
70521;BME280;58442;52.716;23.560;2023-04-29T07:55:49;101554.64;;;14.16;45.89
70521;BME280;58442;52.716;23.560;2023-04-29T07:57:51;101558.88;;;14.30;45.50
70521;BME280;58442;52.716;23.560;2023-04-29T07:59:53;101551.29;;;14.39;45.31
70521;BME280;58442;52.716;23.560;2023-04-29T08:02:02;101554.68;;;14.48;44.99
70521;BME280;58442;52.716;23.560;2023-04-29T08:04:04;101554.14;;;14.58;44.66
70521;BME280;58442;52.716;23.560;2023-04-29T08:06:05;101558.26;;;14.68;44.42
70521;BME280;58442;52.716;23.560;2023-04-29T08:08:07;101556.15;;;14.77;44.05
70521;BME280;58442;52.716;23.560;2023-04-29T08:10:18;101550.11;;;14.87;43.98
70521;BME280;58442;52.716;23.560;2023-04-29T08:12:20;101557.43;;;14.99;43.62
70521;BME280;58442;52.716;23.560;2023-04-29T08:14:21;101552.99;;;15.10;43.26
70521;BME280;58442;52.716;23.560;2023-04-29T08:16:22;101548.09;;;15.19;43.07
70521;BME280;58442;52.716;23.560;2023-04-29T08:18:32;101567.48;;;15.30;42.69
70521;BME280;58442;52.716;23.560;2023-04-29T08:20:34;101556.77;;;15.41;42.41
70521;BME280;58442;52.716;23.560;2023-04-29T08:22:35;101551.85;;;15.50;42.19
70521;BME280;58442;52.716;23.560;2023-04-29T08:24:37;101554.73;;;15.57;41.92
70521;BME280;58442;52.716;23.560;2023-04-29T08:26:47;101557.30;;;15.66;41.74
70521;BME280;58442;52.716;23.560;2023-04-29T08:28:48;101562.93;;;15.73;41.40
70521;BME280;58442;52.716;23.560;2023-04-29T08:30:50;101556.41;;;15.81;41.43
70521;BME280;58442;52.716;23.560;2023-04-29T08:32:51;101556.18;;;15.90;41.25
70521;BME280;58442;52.716;23.560;2023-04-29T08:35:02;101554.81;;;15.99;40.98
70521;BME280;58442;52.716;23.560;2023-04-29T08:37:03;101552.19;;;16.06;40.71
70521;BME280;58442;52.716;23.560;2023-04-29T08:39:05;101540.90;;;16.11;40.39
70521;BME280;58442;52.716;23.560;2023-04-29T08:41:07;101558.27;;;16.19;40.51
70521;BME280;58442;52.716;23.560;2023-04-29T08:43:17;101550.66;;;16.32;40.15
70521;BME280;58442;52.716;23.560;2023-04-29T08:45:22;101548.78;;;16.36;39.94
70521;BME280;58442;52.716;23.560;2023-04-29T08:47:28;101549.61;;;16.40;39.78
70521;BME280;58442;52.716;23.560;2023-04-29T08:49:30;101536.70;;;16.40;39.80
70521;BME280;58442;52.716;23.560;2023-04-29T08:51:33;101542.20;;;16.40;39.89
70521;BME280;58442;52.716;23.560;2023-04-29T08:53:35;101550.77;;;16.39;39.45
70521;BME280;58442;52.716;23.560;2023-04-29T08:55:43;101544.01;;;16.33;39.50
70521;BME280;58442;52.716;23.560;2023-04-29T08:57:48;101551.33;;;16.25;39.53
70521;BME280;58442;52.716;23.560;2023-04-29T08:59:50;101541.39;;;16.17;39.48
70521;BME280;58442;52.716;23.560;2023-04-29T09:01:52;101547.92;;;16.09;39.41
70521;BME280;58442;52.716;23.560;2023-04-29T09:04:07;101544.32;;;16.05;39.30
70521;BME280;58442;52.716;23.560;2023-04-29T09:06:10;101535.30;;;16.04;39.25
70521;BME280;58442;52.716;23.560;2023-04-29T09:08:12;101535.74;;;16.06;39.30
70521;BME280;58442;52.716;23.560;2023-04-29T09:10:22;101532.68;;;16.11;39.26
70521;BME280;58442;52.716;23.560;2023-04-29T09:12:24;101525.23;;;16.12;39.14
70521;BME280;58442;52.716;23.560;2023-04-29T09:14:27;101532.38;;;16.17;39.07
70521;BME280;58442;52.716;23.560;2023-04-29T09:16:29;101521.89;;;16.22;39.05
70521;BME280;58442;52.716;23.560;2023-04-29T09:23:35;101539.49;;;16.44;38.77
70521;BME280;58442;52.716;23.560;2023-04-29T09:30:24;101520.75;;;16.73;38.26
70521;BME280;58442;52.716;23.560;2023-04-29T09:32:26;101523.23;;;16.81;37.78
70521;BME280;58442;52.716;23.560;2023-04-29T09:34:32;101526.41;;;16.83;37.63
70521;BME280;58442;52.716;23.560;2023-04-29T09:38:52;101522.12;;;16.86;37.71
70521;BME280;58442;52.716;23.560;2023-04-29T09:41:08;101526.55;;;16.94;37.79
70521;BME280;58442;52.716;23.560;2023-04-29T09:43:21;101533.74;;;17.02;37.62
70521;BME280;58442;52.716;23.560;2023-04-29T09:47:37;101513.35;;;17.03;37.38
70521;BME280;58442;52.716;23.560;2023-04-29T09:49:40;101520.41;;;17.04;37.10
70521;BME280;58442;52.716;23.560;2023-04-29T09:54:19;101516.45;;;17.02;37.17
70521;BME280;58442;52.716;23.560;2023-04-29T09:56:24;101532.20;;;17.05;37.03
70521;BME280;58442;52.716;23.560;2023-04-29T09:58:32;101522.38;;;17.04;36.90
70521;BME280;58442;52.716;23.560;2023-04-29T10:00:38;101517.70;;;17.08;36.89
70521;BME280;58442;52.716;23.560;2023-04-29T10:02:41;101515.84;;;17.15;36.89
70521;BME280;58442;52.716;23.560;2023-04-29T10:04:52;101511.60;;;17.21;36.89
70521;BME280;58442;52.716;23.560;2023-04-29T10:07:04;101508.51;;;17.23;36.68
70521;BME280;58442;52.716;23.560;2023-04-29T10:09:07;101513.63;;;17.25;36.53
70521;BME280;58442;52.716;23.560;2023-04-29T10:11:11;101505.77;;;17.23;36.56
70521;BME280;58442;52.716;23.560;2023-04-29T10:13:15;101501.84;;;17.24;36.54
70521;BME280;58442;52.716;23.560;2023-04-29T10:17:48;101498.41;;;17.34;36.31
70521;BME280;58442;52.716;23.560;2023-04-29T10:22:11;101487.23;;;17.50;36.15
70521;BME280;58442;52.716;23.560;2023-04-29T10:24:17;101488.88;;;17.58;35.93
70521;BME280;58442;52.716;23.560;2023-04-29T10:26:20;101486.59;;;17.64;35.83
70521;BME280;58442;52.716;23.560;2023-04-29T10:28:31;101487.02;;;17.69;35.78
70521;BME280;58442;52.716;23.560;2023-04-29T10:30:34;101485.59;;;17.79;35.79
70521;BME280;58442;52.716;23.560;2023-04-29T10:32:39;101488.42;;;17.90;35.71
70521;BME280;58442;52.716;23.560;2023-04-29T10:34:42;101480.63;;;17.95;35.55
70521;BME280;58442;52.716;23.560;2023-04-29T10:36:46;101476.75;;;18.00;35.49
70521;BME280;58442;52.716;23.560;2023-04-29T10:38:51;101485.85;;;18.08;35.29
70521;BME280;58442;52.716;23.560;2023-04-29T10:40:57;101472.48;;;18.10;35.04
70521;BME280;58442;52.716;23.560;2023-04-29T10:43:01;101473.28;;;18.10;34.84
70521;BME280;58442;52.716;23.560;2023-04-29T10:47:21;101469.85;;;18.24;34.91
70521;BME280;58442;52.716;23.560;2023-04-29T10:49:23;101462.08;;;18.33;34.82
70521;BME280;58442;52.716;23.560;2023-04-29T10:51:34;101459.73;;;18.39;34.58
70521;BME280;58442;52.716;23.560;2023-04-29T10:55:53;101454.31;;;18.49;34.39
70521;BME280;58442;52.716;23.560;2023-04-29T10:57:57;101457.49;;;18.55;34.28
70521;BME280;58442;52.716;23.560;2023-04-29T10:59:59;101453.95;;;18.54;33.55
70521;BME280;58442;52.716;23.560;2023-04-29T11:02:00;101464.54;;;18.52;33.88
70521;BME280;58442;52.716;23.560;2023-04-29T11:04:03;101459.03;;;18.52;34.00
70521;BME280;58442;52.716;23.560;2023-04-29T11:06:12;101448.06;;;18.59;34.06
70521;BME280;58442;52.716;23.560;2023-04-29T11:08:20;101444.95;;;18.65;33.84
70521;BME280;58442;52.716;23.560;2023-04-29T11:12:38;101454.79;;;18.66;33.60
70521;BME280;58442;52.716;23.560;2023-04-29T11:14:42;101438.66;;;18.64;33.57
70521;BME280;58442;52.716;23.560;2023-04-29T11:16:59;101444.16;;;18.61;33.64
70521;BME280;58442;52.716;23.560;2023-04-29T11:19:08;101438.72;;;18.68;33.56
70521;BME280;58442;52.716;23.560;2023-04-29T11:21:12;101459.22;;;18.74;33.47
70521;BME280;58442;52.716;23.560;2023-04-29T11:23:16;101434.04;;;18.75;33.35
70521;BME280;58442;52.716;23.560;2023-04-29T11:25:18;101435.61;;;18.76;33.28
70521;BME280;58442;52.716;23.560;2023-04-29T11:27:20;101438.37;;;18.76;33.22